Time;durP1;ratioP1;P1;durP2;ratioP2;P2;SDS_P1;SDS_P2;PMS_P1;PMS_P2;Temp;Humidity;BMP_temperature;BMP_pressure;BME280_temperature;BME280_humidity;BME280_pressure;Samples;Min_cycle;Max_cycle;Signal;HPM_P1;HPM_P2
2023/08/22 00:01:57;;;;;;;3.88;2.90;;;;;;;;;;5081822;28;20543;-83
2023/08/22 00:04:23;;;;;;;3.65;3.05;;;;;;;;;;5076734;28;20027;-85
2023/08/22 00:06:48;;;;;;;3.55;2.65;;;;;;;;;;5076440;28;20031;-84
2023/08/22 00:09:13;;;;;;;4.45;3.03;;;;;;;;;;5087782;28;20013;-84
2023/08/22 00:11:39;;;;;;;5.07;3.08;;;;;;;;;;5073374;28;20024;-84
2023/08/22 00:14:04;;;;;;;5.72;3.08;;;;;;;;;;5078950;28;20486;-84
2023/08/22 00:16:29;;;;;;;3.63;2.75;;;;;;;;;;5079594;28;20008;-84
2023/08/22 00:18:55;;;;;;;3.65;2.65;;;;;;;;;;5075900;28;20031;-84
2023/08/22 00:21:20;;;;;;;3.50;2.95;;;;;;;;;;5079035;28;20024;-86
2023/08/22 00:23:46;;;;;;;4.00;3.10;;;;;;;;;;5082104;28;20464;-84
2023/08/22 00:26:11;;;;;;;4.18;3.22;;;;;;;;;;5085046;28;20040;-87
2023/08/22 00:28:36;;;;;;;3.78;2.78;;;;;;;;;;5085683;28;20486;-86
2023/08/22 00:31:02;;;;;;;3.67;2.92;;;;;;;;;;5080854;28;20029;-86
2023/08/22 00:33:27;;;;;;;4.80;3.22;;;;;;;;;;5082327;28;20062;-86
2023/08/22 00:35:52;;;;;;;5.05;3.28;;;;;;;;;;5085881;28;20028;-85
2023/08/22 00:38:18;;;;;;;3.65;3.03;;;;;;;;;;5091236;28;20043;-86
2023/08/22 00:40:43;;;;;;;4.45;3.10;;;;;;;;;;5082002;28;20024;-86
2023/08/22 00:43:08;;;;;;;8.05;3.38;;;;;;;;;;5090665;28;20043;-83
2023/08/22 00:45:34;;;;;;;5.47;3.50;;;;;;;;;;5088226;28;20367;-87
2023/08/22 00:47:59;;;;;;;4.03;3.13;;;;;;;;;;5075683;28;20029;-86
2023/08/22 00:50:25;;;;;;;4.82;2.85;;;;;;;;;;5077199;28;20035;-87
2023/08/22 00:52:50;;;;;;;4.72;2.97;;;;;;;;;;5083312;28;20457;-87
2023/08/22 00:55:17;;;;;;;3.78;3.38;;;;;;;;;;5086870;28;20024;-88
2023/08/22 00:57:42;;;;;;;4.15;2.83;;;;;;;;;;5080451;28;20576;-88
2023/08/22 01:00:10;;;;;;;3.70;2.78;;;;;;;;;;5080112;28;20040;-86
2023/08/22 01:02:37;;;;;;;4.15;2.92;;;;;;;;;;5083166;28;20059;-87
2023/08/22 01:05:03;;;;;;;3.42;2.70;;;;;;;;;;5089397;28;20031;-87
2023/08/22 01:07:49;;;;;;;3.75;3.20;;;;;;;;;;5083603;28;20027;-86
2023/08/22 01:10:20;;;;;;;5.28;2.72;;;;;;;;;;5081130;28;20035;-86
2023/08/22 01:13:02;;;;;;;4.80;3.00;;;;;;;;;;5080010;28;20024;-86
2023/08/22 01:15:30;;;;;;;3.63;2.63;;;;;;;;;;5078134;28;20031;-86
2023/08/22 01:18:03;;;;;;;3.55;2.63;;;;;;;;;;5080116;28;20046;-86
2023/08/22 01:20:29;;;;;;;4.07;2.75;;;;;;;;;;5078476;28;20700;-87
2023/08/22 01:22:55;;;;;;;3.90;3.20;;;;;;;;;;5086220;28;20032;-86
2023/08/22 01:25:20;;;;;;;5.38;3.03;;;;;;;;;;5094742;28;20008;-87
2023/08/22 01:28:12;;;;;;;3.17;2.75;;;;;;;;;;5077430;28;20059;-85
2023/08/22 01:31:16;;;;;;;3.75;2.42;;;;;;;;;;5081003;28;20025;-86
2023/08/22 01:34:07;;;;;;;4.05;2.90;;;;;;;;;;5080823;28;20028;-87
2023/08/22 01:36:34;;;;;;;6.20;3.30;;;;;;;;;;5090812;28;20027;-86
2023/08/22 01:39:04;;;;;;;4.05;3.15;;;;;;;;;;5096654;28;20031;-86
2023/08/22 01:41:29;;;;;;;4.70;3.25;;;;;;;;;;5076509;28;20048;-86
2023/08/22 01:43:54;;;;;;;5.43;3.20;;;;;;;;;;5082740;28;20048;-83
2023/08/22 01:46:20;;;;;;;4.65;2.85;;;;;;;;;;5078959;28;20017;-86
2023/08/22 01:48:45;;;;;;;3.90;3.08;;;;;;;;;;5077130;28;20025;-84
2023/08/22 01:51:10;;;;;;;3.08;2.67;;;;;;;;;;5086017;28;20032;-86
2023/08/22 01:53:36;;;;;;;4.93;3.20;;;;;;;;;;5096967;28;20024;-85
2023/08/22 01:56:02;;;;;;;5.22;3.10;;;;;;;;;;5071490;28;20436;-84
2023/08/22 01:58:27;;;;;;;4.05;2.70;;;;;;;;;;5081619;28;20422;-86
2023/08/22 02:00:53;;;;;;;4.00;3.13;;;;;;;;;;5070270;28;20227;-85
2023/08/22 02:03:20;;;;;;;2.95;2.50;;;;;;;;;;5082983;28;20027;-85
2023/08/22 02:05:45;;;;;;;4.30;2.83;;;;;;;;;;5089677;28;20474;-86
2023/08/22 02:08:11;;;;;;;6.90;3.20;;;;;;;;;;5081165;28;20032;-87
2023/08/22 02:10:36;;;;;;;5.13;3.05;;;;;;;;;;5079969;28;20024;-83
2023/08/22 02:13:02;;;;;;;4.20;3.33;;;;;;;;;;5077749;28;20063;-83
2023/08/22 02:15:27;;;;;;;6.88;3.50;;;;;;;;;;5081150;28;20024;-86
2023/08/22 02:17:53;;;;;;;3.58;2.78;;;;;;;;;;5081536;28;20056;-85
2023/08/22 02:20:22;;;;;;;3.17;2.80;;;;;;;;;;5082835;28;20029;-87
2023/08/22 02:22:47;;;;;;;4.22;2.90;;;;;;;;;;5083849;28;20386;-85
2023/08/22 02:25:13;;;;;;;4.32;3.33;;;;;;;;;;5080408;28;20475;-86
2023/08/22 02:27:38;;;;;;;4.22;3.33;;;;;;;;;;5091013;28;20091;-88
2023/08/22 02:30:07;;;;;;;3.55;2.88;;;;;;;;;;5082903;28;20117;-86
2023/08/22 02:32:33;;;;;;;4.22;3.22;;;;;;;;;;5076861;28;20106;-85
2023/08/22 02:34:58;;;;;;;4.22;3.22;;;;;;;;;;5085662;28;20053;-87
2023/08/22 02:37:23;;;;;;;4.47;3.50;;;;;;;;;;5097061;28;20026;-87
2023/08/22 02:39:48;;;;;;;4.07;3.20;;;;;;;;;;5085875;28;20087;-85
2023/08/22 02:42:14;;;;;;;5.35;3.38;;;;;;;;;;5088822;28;20119;-85
2023/08/22 02:44:39;;;;;;;4.20;3.60;;;;;;;;;;5088518;28;20421;-86
2023/08/22 02:47:05;;;;;;;3.78;3.22;;;;;;;;;;5082302;28;20024;-85
2023/08/22 02:49:30;;;;;;;4.75;3.20;;;;;;;;;;5083939;28;20024;-85
2023/08/22 02:51:55;;;;;;;3.83;3.05;;;;;;;;;;5096938;28;20020;-82
2023/08/22 02:54:21;;;;;;;5.22;3.58;;;;;;;;;;5086780;28;20055;-85
2023/08/22 02:56:46;;;;;;;5.97;3.38;;;;;;;;;;5086617;28;20394;-86
2023/08/22 02:59:11;;;;;;;5.55;3.55;;;;;;;;;;5080564;28;20028;-86
2023/08/22 03:01:36;;;;;;;4.43;2.83;;;;;;;;;;5082786;28;20035;-87
2023/08/22 03:04:02;;;;;;;3.97;3.20;;;;;;;;;;5091618;28;20027;-86
2023/08/22 03:06:27;;;;;;;3.95;2.95;;;;;;;;;;5095391;28;20128;-85
2023/08/22 03:08:53;;;;;;;3.50;3.10;;;;;;;;;;5084620;28;20084;-87
2023/08/22 03:11:18;;;;;;;4.05;2.90;;;;;;;;;;5080993;28;20032;-84
2023/08/22 03:13:43;;;;;;;3.60;3.13;;;;;;;;;;5083612;28;20088;-86
2023/08/22 03:16:09;;;;;;;3.65;2.92;;;;;;;;;;5088045;28;20025;-86
2023/08/22 03:18:34;;;;;;;4.20;3.35;;;;;;;;;;5092853;28;20447;-86
2023/08/22 03:20:59;;;;;;;4.80;3.05;;;;;;;;;;5083037;28;20027;-87
2023/08/22 03:23:25;;;;;;;4.93;2.75;;;;;;;;;;5079288;28;20024;-86
2023/08/22 03:25:58;;;;;;;3.22;2.92;;;;;;;;;;5080173;28;20069;-88
2023/08/22 03:28:24;;;;;;;3.55;2.70;;;;;;;;;;5088117;28;20028;-85
2023/08/22 03:30:57;;;;;;;4.30;3.20;;;;;;;;;;5079760;28;20029;-85
2023/08/22 03:33:23;;;;;;;4.07;2.95;;;;;;;;;;5085685;28;20493;-86
2023/08/22 03:35:49;;;;;;;3.95;2.85;;;;;;;;;;5091503;28;20056;-84
2023/08/22 03:38:15;;;;;;;4.05;3.42;;;;;;;;;;5085268;28;20029;-87
2023/08/22 03:40:40;;;;;;;6.13;3.38;;;;;;;;;;5067926;28;20096;-87
2023/08/22 03:43:05;;;;;;;6.10;3.30;;;;;;;;;;5079767;28;20103;-87
2023/08/22 03:45:31;;;;;;;4.45;2.88;;;;;;;;;;5091071;28;20076;-87
2023/08/22 03:47:56;;;;;;;5.25;3.60;;;;;;;;;;5091948;28;20082;-83
2023/08/22 03:50:21;;;;;;;4.55;3.50;;;;;;;;;;5085334;28;20467;-86
2023/08/22 03:52:46;;;;;;;5.43;3.55;;;;;;;;;;5079298;28;20440;-86
2023/08/22 03:55:12;;;;;;;4.72;3.00;;;;;;;;;;5093135;28;20036;-87
2023/08/22 03:57:37;;;;;;;4.70;3.10;;;;;;;;;;5099635;28;20105;-85
2023/08/22 04:00:04;;;;;;;5.07;3.28;;;;;;;;;;5093425;28;20488;-86
2023/08/22 04:02:29;;;;;;;3.70;3.05;;;;;;;;;;5083442;28;20028;-83
2023/08/22 04:04:55;;;;;;;4.53;3.30;;;;;;;;;;5087219;28;20031;-85
2023/08/22 04:07:21;;;;;;;5.40;2.80;;;;;;;;;;5060697;28;20025;-87
2023/08/22 04:09:46;;;;;;;7.82;3.65;;;;;;;;;;5066127;28;20025;-88
2023/08/22 04:12:11;;;;;;;4.22;3.25;;;;;;;;;;5084383;28;20028;-86
2023/08/22 04:14:37;;;;;;;4.18;3.20;;;;;;;;;;5098651;28;20024;-86
2023/08/22 04:17:02;;;;;;;4.35;3.22;;;;;;;;;;5096014;28;20049;-87
2023/08/22 04:19:28;;;;;;;4.38;3.00;;;;;;;;;;5084212;28;20027;-88
2023/08/22 04:21:53;;;;;;;4.15;3.20;;;;;;;;;;5095456;28;20654;-87
2023/08/22 04:24:18;;;;;;;6.47;3.13;;;;;;;;;;5081478;28;20016;-86
2023/08/22 04:26:44;;;;;;;6.97;3.15;;;;;;;;;;5096399;28;20107;-88
2023/08/22 04:29:09;;;;;;;3.97;3.17;;;;;;;;;;5090832;28;20489;-86
2023/08/22 04:31:34;;;;;;;5.03;3.38;;;;;;;;;;5079378;28;20027;-88
2023/08/22 04:34:00;;;;;;;4.95;3.30;;;;;;;;;;5086929;28;20481;-88
2023/08/22 04:36:25;;;;;;;5.05;3.17;;;;;;;;;;5082286;28;20047;-84
2023/08/22 04:38:50;;;;;;;4.40;3.30;;;;;;;;;;5080657;28;20024;-87
2023/08/22 04:41:16;;;;;;;3.95;3.22;;;;;;;;;;5081962;28;20032;-87
2023/08/22 04:43:41;;;;;;;6.40;3.22;;;;;;;;;;5089998;28;20089;-84
2023/08/22 04:46:07;;;;;;;4.50;3.58;;;;;;;;;;5089466;28;20085;-87
2023/08/22 04:48:32;;;;;;;5.13;3.40;;;;;;;;;;5093717;28;20173;-86
2023/08/22 04:50:57;;;;;;;4.43;3.47;;;;;;;;;;5071218;28;20024;-86
2023/08/22 04:53:24;;;;;;;4.60;3.38;;;;;;;;;;5093804;28;20043;-87
2023/08/22 04:55:50;;;;;;;7.00;3.85;;;;;;;;;;5090514;28;20034;-86
2023/08/22 04:58:16;;;;;;;5.10;3.30;;;;;;;;;;5076593;28;20570;-85
2023/08/22 05:00:41;;;;;;;6.47;3.35;;;;;;;;;;5077300;28;20036;-86
2023/08/22 05:03:07;;;;;;;5.45;3.35;;;;;;;;;;5083156;28;20020;-84
2023/08/22 05:05:32;;;;;;;4.07;3.45;;;;;;;;;;5086914;28;20161;-85
2023/08/22 05:07:57;;;;;;;4.15;3.60;;;;;;;;;;5091003;28;20020;-84
2023/08/22 05:10:23;;;;;;;4.05;3.15;;;;;;;;;;5079916;28;20024;-86
2023/08/22 05:12:49;;;;;;;3.55;3.25;;;;;;;;;;5088363;28;20025;-85
2023/08/22 05:15:14;;;;;;;5.93;3.42;;;;;;;;;;5070287;28;20446;-88
2023/08/22 05:17:40;;;;;;;4.65;3.40;;;;;;;;;;5078773;28;20024;-86
2023/08/22 05:20:06;;;;;;;4.05;2.78;;;;;;;;;;5090842;28;20024;-87
2023/08/22 05:22:32;;;;;;;4.72;3.65;;;;;;;;;;5087111;28;20050;-84
2023/08/22 05:24:58;;;;;;;6.45;3.70;;;;;;;;;;5076152;28;20609;-86
2023/08/22 05:27:23;;;;;;;6.32;3.20;;;;;;;;;;5075502;28;20066;-87
2023/08/22 05:29:49;;;;;;;3.92;3.30;;;;;;;;;;5082509;28;20528;-87
2023/08/22 05:32:14;;;;;;;4.00;3.05;;;;;;;;;;5076194;28;20605;-84
2023/08/22 05:34:40;;;;;;;6.05;3.25;;;;;;;;;;5076854;28;20034;-85
2023/08/22 05:37:05;;;;;;;4.68;3.55;;;;;;;;;;5076892;28;20040;-86
2023/08/22 05:39:30;;;;;;;3.80;3.28;;;;;;;;;;5078579;28;20490;-85
2023/08/22 05:41:56;;;;;;;7.70;3.47;;;;;;;;;;5083194;28;20024;-87
2023/08/22 05:44:21;;;;;;;5.35;3.78;;;;;;;;;;5075429;28;20017;-85
2023/08/22 05:46:46;;;;;;;6.43;4.00;;;;;;;;;;5075818;28;20031;-85
2023/08/22 05:49:11;;;;;;;5.00;4.05;;;;;;;;;;5074927;28;20017;-85
2023/08/22 05:51:37;;;;;;;5.55;3.70;;;;;;;;;;5072201;28;20017;-87
2023/08/22 05:54:02;;;;;;;5.78;3.97;;;;;;;;;;5070143;28;20029;-84
2023/08/22 05:56:27;;;;;;;4.32;3.33;;;;;;;;;;5085068;28;20549;-84
2023/08/22 05:58:53;;;;;;;5.05;3.53;;;;;;;;;;5076713;28;20058;-84
2023/08/22 06:01:18;;;;;;;5.28;3.22;;;;;;;;;;5080910;28;20051;-81
2023/08/22 06:03:43;;;;;;;4.80;3.67;;;;;;;;;;5091586;28;20021;-86
2023/08/22 06:06:09;;;;;;;5.72;3.17;;;;;;;;;;5079605;28;20035;-85
2023/08/22 06:08:34;;;;;;;4.53;3.30;;;;;;;;;;5078743;28;20016;-86
2023/08/22 06:10:59;;;;;;;4.97;3.85;;;;;;;;;;5078268;28;20027;-85
2023/08/22 06:13:25;;;;;;;6.10;3.67;;;;;;;;;;5080393;28;20024;-85
2023/08/22 06:15:50;;;;;;;6.65;3.28;;;;;;;;;;5080524;28;20026;-86
2023/08/22 06:18:15;;;;;;;4.07;3.47;;;;;;;;;;5080511;28;20074;-84
2023/08/22 06:20:41;;;;;;;4.00;3.50;;;;;;;;;;5079472;28;20538;-86
2023/08/22 06:23:06;;;;;;;3.47;3.17;;;;;;;;;;5077550;28;20507;-85
2023/08/22 06:25:32;;;;;;;6.28;3.80;;;;;;;;;;5082056;28;20077;-81
2023/08/22 06:27:58;;;;;;;5.13;3.40;;;;;;;;;;5091158;28;20025;-84
2023/08/22 06:30:23;;;;;;;4.47;3.30;;;;;;;;;;5092474;28;20087;-84
2023/08/22 06:32:48;;;;;;;6.25;3.50;;;;;;;;;;5088582;28;20053;-86
2023/08/22 06:35:14;;;;;;;4.18;3.05;;;;;;;;;;5057160;28;20032;-84
2023/08/22 06:37:39;;;;;;;4.60;3.50;;;;;;;;;;5056438;28;20028;-84
2023/08/22 06:40:05;;;;;;;6.53;3.58;;;;;;;;;;5056710;28;20033;-85
2023/08/22 06:42:31;;;;;;;7.40;3.95;;;;;;;;;;5068959;28;20497;-83
2023/08/22 06:44:57;;;;;;;5.78;3.63;;;;;;;;;;5094163;28;20027;-85
2023/08/22 06:47:22;;;;;;;4.32;3.38;;;;;;;;;;5081148;28;20036;-87
2023/08/22 06:49:47;;;;;;;5.88;3.65;;;;;;;;;;5089587;28;20019;-87
2023/08/22 06:52:13;;;;;;;3.50;3.20;;;;;;;;;;5092216;28;20024;-87
2023/08/22 06:54:39;;;;;;;4.60;3.33;;;;;;;;;;5076824;28;20032;-86
2023/08/22 06:57:04;;;;;;;4.93;4.28;;;;;;;;;;5081154;22;20046;-81
2023/08/22 06:59:29;;;;;;;7.43;4.68;;;;;;;;;;5033649;28;20360;-80
2023/08/22 07:01:55;;;;;;;5.38;4.40;;;;;;;;;;5041444;28;20025;-81
2023/08/22 07:04:20;;;;;;;6.00;3.67;;;;;;;;;;5041277;28;20046;-81
2023/08/22 07:06:45;;;;;;;5.07;3.88;;;;;;;;;;5036720;28;20711;-80
2023/08/22 07:09:11;;;;;;;9.10;4.55;;;;;;;;;;5045514;28;20086;-79
2023/08/22 07:11:36;;;;;;;8.60;4.40;;;;;;;;;;5036394;28;20094;-79
2023/08/22 07:14:03;;;;;;;5.95;3.90;;;;;;;;;;5041296;28;20169;-80
2023/08/22 07:16:28;;;;;;;5.35;3.95;;;;;;;;;;5032003;28;20032;-81
2023/08/22 07:18:53;;;;;;;5.28;4.10;;;;;;;;;;5040016;28;20021;-81
2023/08/22 07:21:19;;;;;;;4.28;3.53;;;;;;;;;;5045852;28;20078;-80
2023/08/22 07:23:44;;;;;;;4.57;4.13;;;;;;;;;;5043044;28;20044;-81
2023/08/22 07:26:09;;;;;;;4.78;4.10;;;;;;;;;;5028440;28;20392;-81
2023/08/22 07:28:34;;;;;;;5.72;4.10;;;;;;;;;;5029176;28;20034;-81
2023/08/22 07:31:03;;;;;;;8.70;4.95;;;;;;;;;;5038502;28;20043;-81
2023/08/22 07:33:29;;;;;;;4.05;3.65;;;;;;;;;;5037494;28;20107;-81
2023/08/22 07:35:54;;;;;;;5.25;3.63;;;;;;;;;;5036165;28;20451;-80
2023/08/22 07:38:19;;;;;;;5.85;4.10;;;;;;;;;;5037670;28;20123;-80
2023/08/22 07:40:45;;;;;;;5.13;3.80;;;;;;;;;;5043889;28;20398;-81
2023/08/22 07:43:10;;;;;;;4.65;3.88;;;;;;;;;;5054477;28;20019;-80
2023/08/22 07:45:36;;;;;;;4.63;3.67;;;;;;;;;;5053923;28;20109;-80
2023/08/22 07:48:03;;;;;;;3.90;2.92;;;;;;;;;;5048743;28;20028;-81
2023/08/22 07:50:29;;;;;;;4.60;3.35;;;;;;;;;;5051005;28;20032;-80
2023/08/22 07:52:55;;;;;;;4.65;3.00;;;;;;;;;;5057643;28;20032;-81
2023/08/22 07:55:23;;;;;;;5.53;3.08;;;;;;;;;;5043409;28;20022;-81
2023/08/22 07:57:49;;;;;;;6.88;3.60;;;;;;;;;;5039018;28;20025;-81
2023/08/22 08:00:16;;;;;;;3.78;3.08;;;;;;;;;;5040845;28;20029;-81
2023/08/22 08:02:41;;;;;;;4.53;3.13;;;;;;;;;;5045454;28;20033;-80
2023/08/22 08:05:07;;;;;;;6.38;3.70;;;;;;;;;;5040195;28;20055;-80
2023/08/22 08:07:33;;;;;;;4.43;3.25;;;;;;;;;;5033389;28;20419;-79
2023/08/22 08:09:58;;;;;;;3.85;2.80;;;;;;;;;;5031679;28;20093;-80
2023/08/22 08:12:24;;;;;;;4.47;2.75;;;;;;;;;;5039891;28;20091;-78
2023/08/22 08:14:49;;;;;;;3.97;2.85;;;;;;;;;;5035659;28;20069;-78
2023/08/22 08:17:17;;;;;;;3.72;2.50;;;;;;;;;;5033669;28;20555;-78
2023/08/22 08:19:42;;;;;;;4.65;3.60;;;;;;;;;;5040486;28;20037;-77
2023/08/22 08:22:08;;;;;;;3.72;2.65;;;;;;;;;;5050044;28;20047;-78
2023/08/22 08:24:33;;;;;;;4.03;2.60;;;;;;;;;;5031562;28;20392;-77
2023/08/22 08:26:58;;;;;;;3.08;2.70;;;;;;;;;;5033631;28;20021;-78
2023/08/22 08:29:24;;;;;;;2.85;2.55;;;;;;;;;;5029569;28;20082;-78
2023/08/22 08:31:49;;;;;;;3.85;2.63;;;;;;;;;;5041903;28;20026;-77
2023/08/22 08:34:14;;;;;;;3.47;2.72;;;;;;;;;;5041595;28;20395;-78
2023/08/22 08:36:40;;;;;;;3.60;2.40;;;;;;;;;;5040880;28;20028;-78
2023/08/22 08:39:07;;;;;;;4.28;2.53;;;;;;;;;;5037296;28;20028;-78
2023/08/22 08:41:33;;;;;;;2.80;2.38;;;;;;;;;;5035103;28;20104;-78
2023/08/22 08:44:00;;;;;;;3.22;2.88;;;;;;;;;;5043344;28;20036;-78
2023/08/22 08:46:29;;;;;;;2.72;2.38;;;;;;;;;;5036385;28;20476;-79
2023/08/22 08:48:54;;;;;;;3.47;2.42;;;;;;;;;;5028117;28;20032;-79
2023/08/22 08:51:21;;;;;;;3.90;2.47;;;;;;;;;;5035091;28;20017;-79
2023/08/22 08:53:48;;;;;;;4.60;2.67;;;;;;;;;;5038194;28;20072;-77
2023/08/22 08:56:14;;;;;;;3.15;2.13;;;;;;;;;;5035590;28;20029;-79
2023/08/22 08:58:39;;;;;;;3.90;2.30;;;;;;;;;;5035385;28;20025;-79
2023/08/22 09:01:06;;;;;;;2.13;1.95;;;;;;;;;;5031470;28;20044;-79
2023/08/22 09:03:34;;;;;;;2.30;2.10;;;;;;;;;;5037776;28;20087;-77
2023/08/22 09:06:00;;;;;;;3.92;2.65;;;;;;;;;;5032840;28;20022;-77
2023/08/22 09:08:25;;;;;;;4.82;2.65;;;;;;;;;;5039521;28;20071;-78
2023/08/22 09:10:52;;;;;;;2.13;1.88;;;;;;;;;;5036375;28;20021;-77
2023/08/22 09:13:25;;;;;;;2.35;1.90;;;;;;;;;;5034746;28;20367;-78
2023/08/22 09:15:51;;;;;;;3.17;2.10;;;;;;;;;;5020620;28;20045;-77
2023/08/22 09:18:16;;;;;;;2.20;1.98;;;;;;;;;;5032063;28;20396;-77
2023/08/22 09:20:45;;;;;;;2.42;1.90;;;;;;;;;;5039128;28;20021;-78
2023/08/22 09:23:28;;;;;;;2.40;2.20;;;;;;;;;;5028076;28;20048;-77
2023/08/22 09:25:55;;;;;;;2.60;2.10;;;;;;;;;;5040374;28;20021;-78
2023/08/22 09:28:20;;;;;;;2.33;2.13;;;;;;;;;;5035386;28;20030;-80
2023/08/22 09:31:20;;;;;;;4.05;2.47;;;;;;;;;;5029421;28;20028;-80
2023/08/22 09:33:46;;;;;;;3.22;2.30;;;;;;;;;;5050696;22;20041;-79
2023/08/22 09:36:12;;;;;;;2.15;1.90;;;;;;;;;;5053398;28;20471;-81
2023/08/22 09:42:13;;;;;;;;;;;;;;;;;;5050396;28;20083;-78
2023/08/22 09:44:56;;;;;;;2.17;1.98;;;;;;;;;;5040758;28;19936;-79
2023/08/22 09:47:25;;;;;;;2.53;2.15;;;;;;;;;;5041757;28;20031;-78
2023/08/22 09:49:58;;;;;;;2.30;2.10;;;;;;;;;;5051451;28;20557;-78
2023/08/22 09:52:25;;;;;;;2.70;2.00;;;;;;;;;;5043633;28;20083;-78
2023/08/22 09:55:21;;;;;;;2.30;2.10;;;;;;;;;;5049317;28;20034;-80
2023/08/22 09:57:50;;;;;;;4.63;2.47;;;;;;;;;;5052181;28;20361;-78
2023/08/22 10:00:34;;;;;;;4.75;2.20;;;;;;;;;;5042670;28;20051;-78
2023/08/22 10:03:40;;;;;;;2.97;2.10;;;;;;;;;;5048306;28;20048;-78
2023/08/22 10:06:10;;;;;;;5.55;2.38;;;;;;;;;;5054636;28;20100;-79
2023/08/22 10:09:08;;;;;;;3.57;2.40;;;;;;;;;;5042581;28;20066;-78
2023/08/22 10:11:56;;;;;;;2.35;2.15;;;;;;;;;;5054513;28;20571;-80
2023/08/22 10:14:41;;;;;;;2.55;2.10;;;;;;;;;;5062317;28;20043;-78
2023/08/22 10:17:31;;;;;;;4.75;2.30;;;;;;;;;;5046160;28;20020;-83
2023/08/22 10:20:16;;;;;;;4.63;2.42;;;;;;;;;;5056517;28;20053;-78
2023/08/22 10:25:16;;;;;;;3.40;2.25;;;;;;;;;;5134829;22;20078;-83
2023/08/22 10:27:46;;;;;;;3.55;2.85;;;;;;;;;;5089812;28;20028;-80
2023/08/22 10:30:12;;;;;;;2.72;2.10;;;;;;;;;;5089374;28;20023;-84
2023/08/22 10:32:37;;;;;;;3.08;2.25;;;;;;;;;;5091683;28;20024;-86
2023/08/22 10:35:19;;;;;;;2.75;2.45;;;;;;;;;;5088910;28;20016;-85
2023/08/22 10:37:50;;;;;;;2.50;2.28;;;;;;;;;;5079904;28;20028;-82
2023/08/22 10:40:31;;;;;;;4.57;2.40;;;;;;;;;;5073503;28;20035;-82
2023/08/22 10:43:07;;;;;;;3.90;2.20;;;;;;;;;;5075320;28;20032;-82
2023/08/22 10:45:47;;;;;;;4.10;2.60;;;;;;;;;;5071679;28;20020;-82
2023/08/22 10:48:13;;;;;;;2.90;2.20;;;;;;;;;;5072601;28;20036;-83
2023/08/22 10:50:43;;;;;;;4.72;2.40;;;;;;;;;;5079992;28;20046;-83
2023/08/22 10:53:22;;;;;;;3.72;2.50;;;;;;;;;;5071411;28;20025;-82
2023/08/22 10:55:49;;;;;;;4.60;2.85;;;;;;;;;;5081547;28;20115;-82
2023/08/22 10:58:40;;;;;;;2.35;2.15;;;;;;;;;;5067622;28;20031;-83
2023/08/22 11:01:15;;;;;;;4.50;2.08;;;;;;;;;;5049622;28;20468;-82
2023/08/22 11:03:42;;;;;;;2.90;2.03;;;;;;;;;;5078071;28;20506;-82
2023/08/22 11:06:12;;;;;;;2.50;2.28;;;;;;;;;;5074249;28;20023;-83
2023/08/22 11:08:38;;;;;;;2.38;2.08;;;;;;;;;;5064924;28;20032;-85
2023/08/22 11:11:04;;;;;;;2.65;2.20;;;;;;;;;;5069988;28;20043;-83
2023/08/22 11:13:37;;;;;;;3.30;2.25;;;;;;;;;;5089632;28;20024;-83
2023/08/22 11:16:09;;;;;;;6.00;2.70;;;;;;;;;;5080264;28;20051;-83
2023/08/22 11:18:34;;;;;;;3.55;2.35;;;;;;;;;;5074744;28;20205;-83
2023/08/22 11:21:00;;;;;;;4.22;2.70;;;;;;;;;;5082248;28;20395;-83
2023/08/22 11:23:25;;;;;;;2.45;2.20;;;;;;;;;;5088152;28;20034;-84
2023/08/22 11:25:51;;;;;;;3.70;2.28;;;;;;;;;;5081454;28;20020;-82
2023/08/22 11:28:16;;;;;;;3.33;2.58;;;;;;;;;;5086754;28;20539;-82
2023/08/22 11:30:42;;;;;;;2.67;2.13;;;;;;;;;;5076115;28;20028;-84
2023/08/22 11:33:07;;;;;;;2.70;2.20;;;;;;;;;;5056598;28;20540;-83
2023/08/22 11:35:32;;;;;;;2.47;1.98;;;;;;;;;;5058823;28;20048;-83
2023/08/22 11:37:58;;;;;;;3.70;1.90;;;;;;;;;;5055018;28;20033;-83
2023/08/22 11:40:25;;;;;;;2.20;1.88;;;;;;;;;;5059491;28;20380;-84
2023/08/22 11:42:51;;;;;;;3.70;2.40;;;;;;;;;;5076147;28;20048;-83
2023/08/22 11:45:24;;;;;;;2.38;1.90;;;;;;;;;;5068917;28;20024;-83
2023/08/22 11:47:54;;;;;;;3.95;2.13;;;;;;;;;;5078577;28;20044;-83
2023/08/22 11:50:27;;;;;;;3.55;1.92;;;;;;;;;;5069672;28;20028;-83
2023/08/22 11:52:57;;;;;;;2.67;2.20;;;;;;;;;;5066501;28;20021;-83
2023/08/22 11:55:28;;;;;;;3.60;2.15;;;;;;;;;;5062292;28;20061;-83
2023/08/22 11:57:59;;;;;;;2.10;1.90;;;;;;;;;;5073153;28;20030;-88
2023/08/22 12:00:26;;;;;;;4.75;1.58;;;;;;;;;;5067582;28;20044;-84
2023/08/22 12:02:56;;;;;;;2.88;1.90;;;;;;;;;;5057164;28;20024;-83
2023/08/22 12:05:29;;;;;;;2.55;1.80;;;;;;;;;;5076643;28;20029;-83
2023/08/22 12:07:54;;;;;;;1.90;1.80;;;;;;;;;;5067394;28;20021;-82
2023/08/22 12:10:20;;;;;;;4.60;2.30;;;;;;;;;;5077814;28;20042;-83
2023/08/22 12:12:45;;;;;;;3.22;2.00;;;;;;;;;;5081468;28;20028;-82
2023/08/22 12:15:10;;;;;;;2.10;1.90;;;;;;;;;;5063435;28;20024;-82
2023/08/22 12:17:36;;;;;;;2.10;1.80;;;;;;;;;;5078379;28;20020;-82
2023/08/22 12:20:01;;;;;;;2.00;1.67;;;;;;;;;;5060642;28;20104;-82
2023/08/22 12:22:26;;;;;;;2.30;1.90;;;;;;;;;;5080530;28;20360;-82
2023/08/22 12:24:52;;;;;;;1.88;1.75;;;;;;;;;;5068927;28;20024;-82
2023/08/22 12:27:18;;;;;;;2.92;1.92;;;;;;;;;;5073003;28;20107;-82
2023/08/22 12:29:44;;;;;;;2.33;1.92;;;;;;;;;;5056062;28;20024;-84
2023/08/22 12:32:10;;;;;;;2.03;1.83;;;;;;;;;;5077781;28;20032;-82
2023/08/22 12:34:36;;;;;;;2.20;2.00;;;;;;;;;;5066321;28;20154;-81
2023/08/22 12:37:02;;;;;;;2.33;2.13;;;;;;;;;;5080430;28;20032;-83
2023/08/22 12:39:27;;;;;;;3.60;2.10;;;;;;;;;;5081699;28;20452;-82
2023/08/22 12:41:52;;;;;;;2.03;1.70;;;;;;;;;;5070674;28;20051;-82
2023/08/22 12:44:18;;;;;;;2.50;2.03;;;;;;;;;;5078229;28;20028;-83
2023/08/22 12:46:43;;;;;;;1.85;1.70;;;;;;;;;;5077546;28;20029;-82
2023/08/22 12:49:08;;;;;;;2.35;2.03;;;;;;;;;;5076026;28;20476;-83
2023/08/22 12:51:34;;;;;;;2.30;1.85;;;;;;;;;;5063296;28;20275;-83
2023/08/22 12:54:00;;;;;;;3.65;2.15;;;;;;;;;;5070844;28;20092;-83
2023/08/22 12:56:27;;;;;;;2.80;1.65;;;;;;;;;;5073208;28;20104;-83
2023/08/22 12:58:55;;;;;;;2.95;2.08;;;;;;;;;;5063302;28;20025;-84
2023/08/22 13:01:21;;;;;;;4.75;1.80;;;;;;;;;;5072991;28;20046;-83
2023/08/22 13:03:46;;;;;;;2.00;1.80;;;;;;;;;;5064399;28;20081;-84
2023/08/22 13:06:12;;;;;;;3.13;2.22;;;;;;;;;;5071403;28;20013;-84
2023/08/22 13:08:37;;;;;;;2.63;2.03;;;;;;;;;;5080264;28;20028;-85
2023/08/22 13:11:02;;;;;;;3.75;2.30;;;;;;;;;;5061233;28;20020;-85
2023/08/22 13:13:28;;;;;;;3.20;2.00;;;;;;;;;;5073654;28;20082;-84
2023/08/22 13:15:53;;;;;;;2.35;2.00;;;;;;;;;;5073221;28;20037;-84
2023/08/22 13:18:19;;;;;;;2.97;2.25;;;;;;;;;;5072781;28;20032;-84
2023/08/22 13:20:44;;;;;;;2.20;2.00;;;;;;;;;;5074652;28;20364;-83
2023/08/22 13:23:09;;;;;;;5.40;1.88;;;;;;;;;;5060983;28;20021;-84
2023/08/22 13:25:35;;;;;;;4.93;2.30;;;;;;;;;;5064788;28;20028;-84
2023/08/22 13:28:00;;;;;;;2.35;1.60;;;;;;;;;;5070061;28;20029;-84
2023/08/22 13:30:26;;;;;;;2.45;2.20;;;;;;;;;;5068265;28;20025;-83
2023/08/22 13:32:51;;;;;;;2.67;2.30;;;;;;;;;;5078035;28;20571;-83
2023/08/22 13:35:17;;;;;;;3.60;1.88;;;;;;;;;;5051714;28;20029;-83
2023/08/22 13:37:43;;;;;;;4.20;2.08;;;;;;;;;;5056942;28;20115;-84
2023/08/22 13:40:09;;;;;;;2.78;2.20;;;;;;;;;;5075290;28;20215;-84
2023/08/22 13:42:35;;;;;;;3.13;2.20;;;;;;;;;;5077603;28;20039;-84
2023/08/22 13:45:01;;;;;;;2.97;1.90;;;;;;;;;;5093651;28;20023;-83
2023/08/22 13:47:26;;;;;;;2.15;1.90;;;;;;;;;;5080525;28;20044;-84
2023/08/22 13:49:52;;;;;;;3.88;2.25;;;;;;;;;;5056642;28;20124;-83
2023/08/22 13:52:17;;;;;;;2.05;1.80;;;;;;;;;;5054890;28;20167;-83
2023/08/22 13:54:42;;;;;;;2.42;1.65;;;;;;;;;;5068726;28;20598;-84
2023/08/22 13:57:08;;;;;;;2.28;1.98;;;;;;;;;;5064907;28;20333;-84
2023/08/22 13:59:35;;;;;;;3.45;1.90;;;;;;;;;;5063426;28;20033;-84
2023/08/22 14:02:00;;;;;;;4.05;2.10;;;;;;;;;;5070492;28;20514;-84
2023/08/22 14:04:26;;;;;;;2.65;1.92;;;;;;;;;;5075366;28;20027;-83
2023/08/22 14:06:52;;;;;;;2.20;1.80;;;;;;;;;;5068147;28;20445;-84
2023/08/22 14:09:17;;;;;;;2.53;1.90;;;;;;;;;;5049481;28;20039;-84
2023/08/22 14:11:43;;;;;;;2.72;2.05;;;;;;;;;;5074106;28;20028;-83
2023/08/22 14:14:08;;;;;;;2.13;1.80;;;;;;;;;;5048975;28;20092;-84
2023/08/22 14:16:33;;;;;;;3.50;2.00;;;;;;;;;;5060537;28;20033;-84
2023/08/22 14:18:59;;;;;;;1.92;1.67;;;;;;;;;;5066514;28;20329;-83
2023/08/22 14:21:24;;;;;;;3.47;2.17;;;;;;;;;;5052458;28;20028;-84
2023/08/22 14:23:49;;;;;;;4.45;1.70;;;;;;;;;;5073481;28;20032;-84
2023/08/22 14:26:16;;;;;;;2.95;2.00;;;;;;;;;;5066299;28;20032;-84
2023/08/22 14:28:41;;;;;;;3.22;2.15;;;;;;;;;;5071764;28;20109;-83
2023/08/22 14:31:07;;;;;;;2.75;2.05;;;;;;;;;;5065055;28;20064;-84
2023/08/22 14:33:32;;;;;;;1.77;1.67;;;;;;;;;;5074754;28;20550;-84
2023/08/22 14:35:57;;;;;;;2.85;2.10;;;;;;;;;;5067374;28;20438;-83
2023/08/22 14:38:23;;;;;;;1.83;1.73;;;;;;;;;;5067451;28;20024;-84
2023/08/22 14:40:58;;;;;;;2.20;2.00;;;;;;;;;;5069669;28;20033;-83
2023/08/22 14:43:28;;;;;;;5.18;1.80;;;;;;;;;;5069420;28;20023;-84
2023/08/22 14:45:54;;;;;;;2.25;1.88;;;;;;;;;;5055949;28;20305;-84
2023/08/22 14:48:20;;;;;;;2.63;1.70;;;;;;;;;;5071089;28;20036;-84
2023/08/22 14:50:45;;;;;;;4.47;2.05;;;;;;;;;;5073738;28;20063;-84